createdAt,value
2019-04-11T00:02:08.821Z,69.70
2019-04-11T00:04:35.122Z,70.80
2019-04-11T00:07:01.287Z,72.00
2019-04-11T00:09:27.517Z,70.30
2019-04-11T00:11:54.430Z,70.70
2019-04-11T00:14:21.990Z,71.20
2019-04-11T00:16:49.756Z,71.50
2019-04-11T00:19:16.129Z,70.40
2019-04-11T00:21:42.386Z,69.50
2019-04-11T00:24:08.619Z,69.70
2019-04-11T00:26:36.078Z,70.80
2019-04-11T00:29:03.847Z,69.70
2019-04-11T00:31:30.653Z,70.40
2019-04-11T00:33:57.011Z,70.50
2019-04-11T00:36:24.215Z,71.30
2019-04-11T00:38:50.637Z,70.50
2019-04-11T00:41:17.586Z,70.60
2019-04-11T00:43:45.359Z,70.80
2019-04-11T00:46:12.001Z,70.10
2019-04-11T00:48:38.224Z,70.70
2019-04-11T00:51:04.619Z,71.20
2019-04-11T00:53:31.030Z,70.50
2019-04-11T00:55:57.217Z,71.50
2019-04-11T00:58:23.561Z,70.90
2019-04-11T01:00:51.312Z,70.40
2019-04-11T01:03:17.961Z,70.70
2019-04-11T01:05:44.329Z,71.50
2019-04-11T01:08:11.500Z,71.80
2019-04-11T01:10:37.938Z,71.70
2019-04-11T01:13:05.079Z,71.00
2019-04-11T01:15:36.467Z,71.00
2019-04-11T01:18:03.622Z,71.50
2019-04-11T01:20:29.984Z,71.10
2019-04-11T01:22:56.455Z,70.60
2019-04-11T01:25:22.905Z,71.40
2019-04-11T01:27:50.004Z,71.80
2019-04-11T01:30:18.626Z,71.70
2019-04-11T01:32:44.848Z,71.40
2019-04-11T01:35:13.060Z,71.60
2019-04-11T01:37:39.852Z,71.10
2019-04-11T01:40:07.664Z,71.20
2019-04-11T01:42:34.059Z,71.10
2019-04-11T01:45:01.068Z,70.60
2019-04-11T01:47:32.982Z,70.70
2019-04-11T01:49:59.287Z,70.70
2019-04-11T01:52:26.529Z,71.00
2019-04-11T01:54:52.946Z,71.50
2019-04-11T01:57:20.053Z,71.50
2019-04-11T01:59:46.500Z,70.90
2019-04-11T02:02:23.864Z,71.70
2019-04-11T02:04:55.066Z,71.60
2019-04-11T02:07:21.250Z,71.50
2019-04-11T02:09:48.467Z,71.10
2019-04-11T02:12:16.259Z,72.00
2019-04-11T02:14:43.823Z,71.60
2019-04-11T02:17:10.431Z,72.00
2019-04-11T02:19:36.804Z,72.10
2019-04-11T02:22:06.327Z,72.50
2019-04-11T02:24:36.192Z,71.80
2019-04-11T02:27:04.583Z,72.30
2019-04-11T02:29:30.832Z,72.00
2019-04-11T02:31:59.419Z,72.90
2019-04-11T02:34:25.433Z,73.40
2019-04-11T02:36:53.554Z,73.40
2019-04-11T02:39:20.916Z,73.00
2019-04-11T02:41:48.221Z,73.00
2019-04-11T02:44:32.052Z,73.50
2019-04-11T02:46:53.028Z,73.30
2019-04-11T02:49:10.873Z,73.50
2019-04-11T02:51:38.726Z,73.60
2019-04-11T02:54:07.023Z,74.20
2019-04-11T02:56:35.754Z,74.30
2019-04-11T02:59:03.040Z,74.60
2019-04-11T03:01:31.944Z,74.30
2019-04-11T03:03:59.141Z,75.20
2019-04-11T03:06:26.458Z,75.40
2019-04-11T03:08:55.032Z,76.30
2019-04-11T03:11:21.900Z,75.80
2019-04-11T03:13:54.659Z,75.70
2019-04-11T03:16:32.849Z,75.40
2019-04-11T03:19:08.473Z,76.20
2019-04-11T03:21:21.621Z,75.70
2019-04-11T03:23:46.787Z,76.50
2019-04-11T03:26:14.098Z,76.00
2019-04-11T03:28:46.267Z,76.40
2019-04-11T03:31:41.686Z,75.60
2019-04-11T03:36:59.924Z,75.90
2019-04-11T03:38:55.470Z,76.20
2019-04-11T03:41:20.409Z,76.50
2019-04-11T03:43:43.259Z,76.30
2019-04-11T03:46:20.295Z,76.50
2019-04-11T03:48:40.510Z,76.60
2019-04-11T03:51:02.470Z,77.10
2019-04-11T03:53:30.000Z,77.50
2019-04-11T03:56:01.498Z,77.40
2019-04-11T03:58:29.461Z,77.90
2019-04-11T04:00:59.440Z,78.00
2019-04-11T04:03:26.701Z,77.40
2019-04-11T04:05:55.120Z,77.60
2019-04-11T04:08:22.564Z,78.10
2019-04-11T04:11:03.993Z,78.70
2019-04-11T04:13:31.906Z,79.30
2019-04-11T04:16:12.145Z,79.10
2019-04-11T04:18:45.799Z,79.10
2019-04-11T04:21:17.458Z,79.20
2019-04-11T04:23:45.533Z,79.50
2019-04-11T04:26:14.679Z,80.10
2019-04-11T04:28:41.062Z,80.90
2019-04-11T04:31:09.142Z,81.20
2019-04-11T04:33:36.345Z,81.60
2019-04-11T04:36:07.693Z,81.80
2019-04-11T04:38:33.790Z,82.70
2019-04-11T04:41:16.727Z,82.60
2019-04-11T04:43:31.568Z,82.20
2019-04-11T04:46:17.320Z,82.80
2019-04-11T04:48:27.227Z,82.20
2019-04-11T04:50:56.824Z,82.00
2019-04-11T04:53:24.037Z,83.00
2019-04-11T04:55:52.207Z,83.00
2019-04-11T04:58:20.202Z,84.00
2019-04-11T05:00:48.443Z,84.60
2019-04-11T05:03:15.921Z,84.70
2019-04-11T05:05:42.502Z,85.40
2019-04-11T05:08:10.658Z,85.90
2019-04-11T05:10:38.181Z,85.70
2019-04-11T05:13:05.663Z,85.30
2019-04-11T05:15:32.452Z,86.10
2019-04-11T05:17:59.860Z,85.90
2019-04-11T05:20:26.190Z,85.10
2019-04-11T05:22:52.448Z,84.90
2019-04-11T05:25:18.580Z,85.30
2019-04-11T05:27:45.435Z,85.80
2019-04-11T05:30:11.805Z,86.40
2019-04-11T05:32:38.085Z,86.10
2019-04-11T05:35:05.031Z,86.00
2019-04-11T05:37:31.409Z,86.00
2019-04-11T05:39:58.587Z,85.20
2019-04-11T05:42:26.986Z,85.30
2019-04-11T05:44:53.018Z,84.80
2019-04-11T05:47:19.999Z,84.70
2019-04-11T05:50:01.066Z,84.50
2019-04-11T05:52:30.782Z,84.70
2019-04-11T05:54:58.464Z,84.60
2019-04-11T05:57:33.576Z,84.00
2019-04-11T05:59:54.816Z,84.10
2019-04-11T06:02:29.372Z,84.50
2019-04-11T06:04:57.794Z,84.10
2019-04-11T06:07:27.176Z,83.60
2019-04-11T06:09:56.517Z,84.10
2019-04-11T06:12:25.461Z,83.80
2019-04-11T06:14:53.653Z,83.40
2019-04-11T06:17:21.785Z,82.50
2019-04-11T06:19:53.562Z,82.40
2019-04-11T06:22:19.975Z,81.60
2019-04-11T06:24:50.846Z,81.70
2019-04-11T06:27:22.169Z,80.80
2019-04-11T06:29:56.037Z,80.40
2019-04-11T06:32:42.135Z,80.90
2019-04-11T06:35:26.138Z,80.10
2019-04-11T06:37:58.301Z,80.00
2019-04-11T06:40:27.717Z,79.40
2019-04-11T06:42:56.070Z,77.80
2019-04-11T06:45:41.781Z,78.70
2019-04-11T06:48:16.115Z,77.90
2019-04-11T06:50:44.283Z,77.00
2019-04-11T06:53:11.462Z,78.40
2019-04-11T06:55:42.695Z,77.30
2019-04-11T06:58:10.874Z,77.10
2019-04-11T07:00:39.158Z,76.80
2019-04-11T07:03:17.397Z,75.90
2019-04-11T07:05:39.146Z,77.50
2019-04-11T07:08:07.561Z,76.80
2019-04-11T07:10:38.962Z,77.10
2019-04-11T07:13:10.012Z,76.30
2019-04-11T07:15:38.141Z,75.40
2019-04-11T07:18:24.802Z,75.00
2019-04-11T07:20:56.300Z,74.60
2019-04-11T07:23:43.955Z,74.80
2019-04-11T07:26:27.333Z,75.40
2019-04-11T07:28:56.523Z,74.90
2019-04-11T07:31:25.453Z,74.00
2019-04-11T07:33:56.591Z,74.70
2019-04-11T07:36:41.509Z,74.70
2019-04-11T07:39:09.973Z,74.50
2019-04-11T07:41:39.258Z,74.50
2019-04-11T07:44:08.565Z,73.80
2019-04-11T07:46:53.705Z,73.40
2019-04-11T07:49:24.611Z,73.40
2019-04-11T07:51:52.805Z,72.70
2019-04-11T07:54:20.158Z,73.50
2019-04-11T07:56:57.246Z,71.80
2019-04-11T07:59:34.159Z,71.90
2019-04-11T08:02:18.733Z,72.10
2019-04-11T08:04:55.755Z,73.10
2019-04-11T08:07:26.625Z,72.70
2019-04-11T08:09:54.973Z,73.10
2019-04-11T08:12:25.845Z,72.70
2019-04-11T08:14:55.044Z,72.40
2019-04-11T08:17:35.512Z,71.80
2019-04-11T08:19:55.874Z,70.70
2019-04-11T08:22:36.135Z,71.00
2019-04-11T08:25:22.940Z,72.20
2019-04-11T08:27:59.262Z,72.40
2019-04-11T08:30:22.476Z,72.00
2019-04-11T08:33:00.339Z,72.00
2019-04-11T08:35:37.620Z,72.10
2019-04-11T08:38:12.031Z,72.10
2019-04-11T08:40:42.964Z,72.10
2019-04-11T08:43:11.193Z,70.00
2019-04-11T08:45:54.278Z,70.00
2019-04-11T08:48:21.232Z,71.20
2019-04-11T08:50:58.859Z,69.70
2019-04-11T08:53:45.066Z,70.60
2019-04-11T08:56:12.864Z,71.30
2019-04-11T08:58:46.948Z,70.20
2019-04-11T09:01:18.253Z,68.60
2019-04-11T09:04:07.355Z,68.20
2019-04-11T09:06:32.858Z,68.70
2019-04-11T09:09:18.723Z,67.40
2019-04-11T09:11:47.155Z,67.40
2019-04-11T09:14:32.505Z,67.80
2019-04-11T09:17:01.665Z,65.90
2019-04-11T09:19:47.294Z,66.70
2019-04-11T09:22:18.437Z,63.60
2019-04-11T09:25:03.419Z,63.30
2019-04-11T09:27:49.001Z,63.00
2019-04-11T09:30:17.527Z,61.80
2019-04-11T09:33:02.834Z,60.50
2019-04-11T09:35:39.961Z,62.70
2019-04-11T09:38:20.200Z,62.10
2019-04-11T09:40:52.105Z,61.60
2019-04-11T09:43:26.263Z,61.60
2019-04-11T09:45:57.696Z,60.70
2019-04-11T09:48:42.641Z,63.00
2019-04-11T09:51:11.439Z,62.40
2019-04-11T09:53:40.909Z,62.70
2019-04-11T09:56:21.063Z,60.50
2019-04-11T09:58:49.702Z,61.80
2019-04-11T10:01:18.219Z,62.10
2019-04-11T10:03:45.972Z,62.50
2019-04-11T10:06:19.746Z,61.00
2019-04-11T10:08:48.875Z,60.30
2019-04-11T10:11:30.338Z,59.60
2019-04-11T10:14:01.708Z,59.00
2019-04-11T10:16:29.888Z,58.80
2019-04-11T10:19:15.681Z,59.80
2019-04-11T10:21:56.441Z,57.60
2019-04-11T10:24:30.695Z,59.40
2019-04-11T10:27:14.336Z,58.80
2019-04-11T10:29:52.576Z,57.30
2019-04-11T10:32:23.671Z,57.40
2019-04-11T10:34:52.182Z,55.70
2019-04-11T10:37:20.256Z,55.10
2019-04-11T10:39:54.071Z,53.80
2019-04-11T10:42:22.181Z,55.00
2019-04-11T10:44:56.384Z,55.00
2019-04-11T10:47:25.020Z,54.30
2019-04-11T10:50:09.716Z,52.60
2019-04-11T10:52:38.380Z,52.90
2019-04-11T10:55:13.931Z,52.40
2019-04-11T10:57:44.788Z,50.90
2019-04-11T11:00:14.243Z,51.30
2019-04-11T11:02:49.391Z,52.10
2019-04-11T11:05:19.118Z,50.60
2019-04-11T11:07:47.343Z,51.50
2019-04-11T11:10:17.979Z,50.60
2019-04-11T11:13:02.846Z,50.50
2019-04-11T11:15:31.646Z,51.00
2019-04-11T11:18:44.041Z,50.80
2019-04-11T11:20:53.582Z,49.90
2019-04-11T11:23:33.705Z,50.20
2019-04-11T11:26:02.801Z,48.20
2019-04-11T11:28:36.736Z,48.90
2019-04-11T11:31:07.591Z,49.60
2019-04-11T11:33:34.841Z,48.10
2019-04-11T11:36:21.439Z,48.60
2019-04-11T11:38:55.856Z,47.60
2019-04-11T11:41:40.788Z,48.50
2019-04-11T11:44:09.748Z,49.20
2019-04-11T11:46:50.144Z,48.70
2019-04-11T11:49:36.280Z,49.30
2019-04-11T11:52:04.791Z,49.50
2019-04-11T11:54:35.732Z,49.00
2019-04-11T11:57:04.603Z,50.30
2019-04-11T11:59:32.875Z,49.80
2019-04-11T12:02:02.265Z,50.60
2019-04-11T12:04:35.306Z,50.50
2019-04-11T12:07:03.596Z,50.20
2019-04-11T12:09:34.242Z,49.40
2019-04-11T12:12:08.589Z,50.60
2019-04-11T12:14:53.795Z,49.40
2019-04-11T12:17:33.575Z,47.30
2019-04-11T12:20:06.490Z,48.10
2019-04-11T12:22:31.094Z,48.80
2019-04-11T12:24:59.259Z,47.90
2019-04-11T12:27:44.067Z,48.70
2019-04-11T12:30:27.954Z,50.30
2019-04-11T12:32:57.065Z,49.80
2019-04-11T12:35:26.276Z,49.50
2019-04-11T12:38:11.705Z,48.30
2019-04-11T12:40:42.708Z,48.70
2019-04-11T12:43:10.943Z,49.00
2019-04-11T12:45:57.293Z,50.10
2019-04-11T12:48:25.450Z,49.00
2019-04-11T12:50:56.222Z,47.90
2019-04-11T12:53:22.507Z,47.50
2019-04-11T12:56:02.946Z,48.50
2019-04-11T12:58:30.988Z,48.90
2019-04-11T13:01:05.158Z,48.10
2019-04-11T13:03:49.779Z,48.10
2019-04-11T13:06:35.240Z,48.20
2019-04-11T13:09:13.817Z,48.00
2019-04-11T13:11:44.934Z,46.80
2019-04-11T13:14:25.115Z,47.80
2019-04-11T13:17:08.261Z,48.40
2019-04-11T13:19:36.378Z,45.70
2019-04-11T13:22:05.226Z,47.20
2019-04-11T13:24:36.323Z,47.80
2019-04-11T13:27:13.732Z,47.10
2019-04-11T13:29:44.906Z,47.70
2019-04-11T13:32:28.156Z,46.30
2019-04-11T13:34:59.476Z,46.40
2019-04-11T13:37:44.101Z,46.50
2019-04-11T13:40:12.433Z,44.80
2019-04-11T13:42:56.630Z,45.70
2019-04-11T13:45:24.080Z,46.50
2019-04-11T13:48:08.506Z,46.60
2019-04-11T13:50:35.560Z,45.30
2019-04-11T13:53:20.106Z,45.10
2019-04-11T13:55:46.310Z,45.40
2019-04-11T13:58:32.210Z,44.00
2019-04-11T14:00:58.715Z,43.90
2019-04-11T14:03:38.808Z,44.50
2019-04-11T14:06:09.904Z,44.50
2019-04-11T14:08:41.020Z,44.80
2019-04-11T14:11:09.136Z,44.00
2019-04-11T14:13:40.031Z,43.30
2019-04-11T14:16:10.157Z,43.40
2019-04-11T14:18:41.451Z,42.60
2019-04-11T14:21:17.210Z,43.10
2019-04-11T14:23:51.115Z,43.70
2019-04-11T14:26:21.962Z,43.40
2019-04-11T14:28:49.332Z,44.50
2019-04-11T14:31:33.852Z,43.90
2019-04-11T14:34:18.646Z,44.20
2019-04-11T14:36:49.729Z,43.00
2019-04-11T14:39:17.923Z,43.30
2019-04-11T14:41:59.801Z,42.90
2019-04-11T14:44:27.964Z,43.10
2019-04-11T14:46:56.014Z,42.90
2019-04-11T14:49:22.451Z,42.70
2019-04-11T14:52:06.929Z,42.80
2019-04-11T14:54:35.043Z,41.70
2019-04-11T14:57:03.137Z,41.60
2019-04-11T14:59:34.218Z,41.20
2019-04-11T15:02:11.247Z,42.20
2019-04-11T15:04:43.939Z,42.00
2019-04-11T15:07:12.827Z,42.20
2019-04-11T15:09:58.486Z,42.20
2019-04-11T15:12:26.616Z,42.10
2019-04-11T15:14:57.626Z,42.50
2019-04-11T15:17:26.434Z,42.60
2019-04-11T15:19:55.178Z,41.90
2019-04-11T15:22:35.688Z,41.70
2019-04-11T15:25:14.404Z,40.60
2019-04-11T15:27:54.426Z,40.80
2019-04-11T15:30:22.493Z,41.70
2019-04-11T15:32:50.630Z,41.10
2019-04-11T15:35:16.774Z,39.70
2019-04-11T15:38:01.203Z,39.90
2019-04-11T15:40:27.442Z,40.70
2019-04-11T15:43:12.359Z,40.70
2019-04-11T15:45:40.521Z,41.20
2019-04-11T15:48:25.120Z,41.00
2019-04-11T15:51:10.435Z,41.10
2019-04-11T15:53:47.583Z,41.20
2019-04-11T15:56:32.414Z,41.10
2019-04-11T15:59:12.989Z,40.60
2019-04-11T16:01:48.650Z,41.50
2019-04-11T16:04:28.987Z,40.20
2019-04-11T16:07:12.426Z,40.20
2019-04-11T16:09:43.755Z,39.80
2019-04-11T16:12:18.090Z,39.70
2019-04-11T16:14:44.503Z,39.60
2019-04-11T16:17:24.918Z,39.70
2019-04-11T16:19:53.065Z,39.60
2019-04-11T16:22:24.688Z,39.50
2019-04-11T16:24:51.279Z,40.20
2019-04-11T16:27:19.389Z,40.30
2019-04-11T16:29:47.521Z,39.90
2019-04-11T16:32:14.894Z,40.40
2019-04-11T16:34:48.609Z,40.20
2019-04-11T16:37:17.553Z,40.20
2019-04-11T16:40:00.082Z,40.30
2019-04-11T16:42:28.123Z,40.40
2019-04-11T16:45:08.498Z,39.50
2019-04-11T16:47:48.545Z,39.90
2019-04-11T16:50:15.389Z,39.20
2019-04-11T16:52:41.796Z,39.30
2019-04-11T16:55:10.104Z,39.10
2019-04-11T16:57:36.250Z,39.20
2019-04-11T17:00:09.256Z,39.60
2019-04-11T17:02:35.430Z,40.40
2019-04-11T17:05:01.662Z,40.40
2019-04-11T17:07:46.444Z,39.50
2019-04-11T17:10:14.659Z,39.40
2019-04-11T17:12:40.908Z,40.30
2019-04-11T17:15:08.130Z,40.80
2019-04-11T17:17:34.437Z,40.40
2019-04-11T17:20:00.582Z,40.60
2019-04-11T17:22:28.418Z,40.50
2019-04-11T17:24:54.868Z,39.70
2019-04-11T17:27:23.178Z,40.30
2019-04-11T17:29:49.240Z,40.50
2019-04-11T17:32:15.401Z,40.00
2019-04-11T17:34:41.699Z,39.50
2019-04-11T17:37:07.835Z,40.30
2019-04-11T17:39:36.628Z,41.30
2019-04-11T17:42:02.098Z,41.20
2019-04-11T17:44:28.327Z,40.90
2019-04-11T17:46:56.439Z,41.40
2019-04-11T17:49:22.631Z,41.60
2019-04-11T17:51:55.638Z,41.20
2019-04-11T17:54:16.940Z,40.80
2019-04-11T17:56:43.220Z,41.30
2019-04-11T17:59:12.047Z,40.90
2019-04-11T18:01:38.014Z,41.00
2019-04-11T18:04:04.821Z,41.00
2019-04-11T18:06:30.960Z,41.70
2019-04-11T18:08:57.189Z,40.90
2019-04-11T18:11:25.670Z,41.00
2019-04-11T18:13:51.669Z,41.40
2019-04-11T18:16:17.834Z,41.30
2019-04-11T18:18:44.173Z,41.00
2019-04-11T18:21:10.801Z,41.30
2019-04-11T18:23:37.059Z,41.80
2019-04-11T18:26:04.007Z,41.80
2019-04-11T18:28:30.415Z,42.60
2019-04-11T18:30:56.565Z,43.00
2019-04-11T18:33:22.956Z,43.40
2019-04-11T18:35:49.269Z,43.10
2019-04-11T18:38:15.634Z,42.90
2019-04-11T18:40:42.059Z,43.20
2019-04-11T18:43:08.274Z,42.80
2019-04-11T18:45:34.558Z,42.50
2019-04-11T18:48:01.157Z,42.90
2019-04-11T18:50:28.925Z,42.80
2019-04-11T18:52:59.256Z,43.00
2019-04-11T18:55:23.436Z,43.10
2019-04-11T18:57:49.649Z,42.70
2019-04-11T19:00:18.304Z,42.80
2019-04-11T19:02:44.789Z,42.90
2019-04-11T19:05:13.352Z,43.20
2019-04-11T19:07:42.809Z,43.20
2019-04-11T19:10:08.289Z,42.90
2019-04-11T19:12:34.641Z,43.00
2019-04-11T19:15:00.835Z,42.80
2019-04-11T19:17:27.080Z,43.10
2019-04-11T19:19:53.386Z,42.60
2019-04-11T19:22:23.533Z,42.90
2019-04-11T19:24:47.546Z,43.20
2019-04-11T19:27:14.066Z,42.90
2019-04-11T19:29:42.164Z,42.90
2019-04-11T19:32:08.472Z,43.30
2019-04-11T19:34:35.069Z,43.40
2019-04-11T19:37:03.654Z,43.60
2019-04-11T19:39:29.595Z,43.60
2019-04-11T19:41:55.760Z,43.60
2019-04-11T19:44:21.873Z,43.40
2019-04-11T19:46:48.443Z,43.60
2019-04-11T19:49:16.038Z,43.10
2019-04-11T19:51:42.203Z,43.40
2019-04-11T19:54:08.523Z,43.50
2019-04-11T19:56:36.692Z,43.00
2019-04-11T19:59:03.028Z,42.90
2019-04-11T20:01:29.188Z,43.80
2019-04-11T20:03:55.517Z,43.70
2019-04-11T20:06:21.754Z,43.20
2019-04-11T20:08:47.962Z,43.50
2019-04-11T20:11:14.145Z,43.30
2019-04-11T20:13:40.399Z,43.50
2019-04-11T20:16:06.530Z,43.80
2019-04-11T20:18:32.752Z,43.70
2019-04-11T20:20:58.957Z,44.00
2019-04-11T20:23:25.218Z,44.00
2019-04-11T20:25:51.427Z,43.90
2019-04-11T20:28:19.946Z,44.20
2019-04-11T20:30:45.603Z,44.40
2019-04-11T20:33:11.888Z,44.20
2019-04-11T20:35:40.024Z,44.30
2019-04-11T20:38:06.232Z,44.10
2019-04-11T20:40:33.226Z,44.30
2019-04-11T20:42:59.407Z,44.10
2019-04-11T20:45:28.502Z,44.60
2019-04-11T20:47:55.372Z,45.10
2019-04-11T20:50:21.590Z,44.20
2019-04-11T20:52:47.743Z,44.20
2019-04-11T20:55:13.902Z,44.60
2019-04-11T20:57:41.041Z,44.40
2019-04-11T21:00:12.066Z,44.40
2019-04-11T21:02:35.685Z,44.60
2019-04-11T21:05:02.065Z,44.30
2019-04-11T21:07:31.538Z,44.30
2019-04-11T21:09:56.335Z,44.20
2019-04-11T21:12:22.615Z,44.40
2019-04-11T21:14:48.851Z,44.40
2019-04-11T21:17:15.070Z,44.60
2019-04-11T21:19:41.216Z,44.70
2019-04-11T21:22:07.328Z,44.80
2019-04-11T21:24:33.587Z,45.10
2019-04-11T21:26:59.807Z,45.20
2019-04-11T21:29:30.000Z,45.20
2019-04-11T21:31:54.041Z,45.30
2019-04-11T21:34:20.421Z,45.60
2019-04-11T21:36:46.659Z,45.40
2019-04-11T21:39:12.806Z,45.80
2019-04-11T21:41:38.972Z,45.90
2019-04-11T21:44:06.494Z,46.30
2019-04-11T21:46:37.401Z,45.60
2019-04-11T21:49:01.180Z,45.80
2019-04-11T21:51:27.586Z,46.10
2019-04-11T21:53:53.829Z,46.20
2019-04-11T21:56:19.966Z,46.20
2019-04-11T21:58:49.947Z,46.50
2019-04-11T22:01:15.428Z,46.40
2019-04-11T22:03:41.955Z,46.80
2019-04-11T22:06:08.213Z,46.60
2019-04-11T22:08:35.121Z,46.90
2019-04-11T22:11:03.086Z,47.20
2019-04-11T22:13:29.477Z,47.10
2019-04-11T22:15:55.687Z,47.20
2019-04-11T22:18:22.090Z,47.40
2019-04-11T22:20:48.426Z,47.40
2019-04-11T22:23:14.557Z,47.70
2019-04-11T22:25:40.886Z,48.00
2019-04-11T22:28:07.134Z,48.20
2019-04-11T22:30:33.564Z,48.10
2019-04-11T22:33:01.709Z,48.60
2019-04-11T22:35:28.998Z,49.20
2019-04-11T22:37:59.670Z,49.00
2019-04-11T22:40:23.704Z,49.00
2019-04-11T22:42:50.046Z,49.40
2019-04-11T22:45:16.282Z,49.30
2019-04-11T22:47:42.429Z,49.50
2019-04-11T22:50:10.123Z,49.90
2019-04-11T22:52:36.934Z,50.30
2019-04-11T22:55:04.673Z,50.30
2019-04-11T22:57:30.921Z,50.60
2019-04-11T22:59:57.208Z,51.00
2019-04-11T23:02:28.043Z,51.10
2019-04-11T23:04:54.303Z,51.40
2019-04-11T23:07:20.537Z,51.90
2019-04-11T23:09:48.908Z,52.00
2019-04-11T23:12:15.228Z,52.40
2019-04-11T23:14:45.398Z,52.60
2019-04-11T23:17:11.829Z,53.00
2019-04-11T23:19:38.289Z,53.30
2019-04-11T23:22:04.420Z,53.50
2019-04-11T23:24:30.561Z,54.00
2019-04-11T23:26:56.911Z,54.30
2019-04-11T23:29:23.131Z,54.30
2019-04-11T23:31:50.855Z,54.70
2019-04-11T23:34:19.728Z,54.80
2019-04-11T23:36:45.556Z,55.10
2019-04-11T23:39:11.835Z,55.40
2019-04-11T23:41:38.167Z,55.70
2019-04-11T23:44:04.404Z,56.20
2019-04-11T23:46:30.723Z,56.10
2019-04-11T23:48:56.880Z,56.10
2019-04-11T23:51:26.247Z,56.20
2019-04-11T23:53:51.377Z,56.70
2019-04-11T23:56:17.577Z,57.00
2019-04-11T23:58:43.711Z,57.20
